Weather

EOSM Weather Station at 13:28 on 30/03/17

Wind: 12kt SSW ( 14mph 211° ) Today's High: 21kt at 2:52 QFE: 1005mb QNH: 1009mb (Steady) Temp: 13°C Dew Point: 11°C Humidity: 86% Rain: None Sunrise: 6:45 Sunset: 19:44

TAFs

  • Edinburgh TAF EGPH 301103Z 3012/3112 21010KT 9999 SCT030 BECMG 3017/3019 VRB05KT TEMPO 3020/3112 8000 -RA BKN012 PROB30 TEMPO 3100/3109 4000 RADZ BKN008 BECMG 3110/3112 22015KT
  • Leuchars TAF EGQL 301044Z 3012/3021 21014KT 9999 FEW020 SCT045 TEMPO 3012/3021 7000 -RA -SHRA SCT020

Live Airfield Webcams

The webcams are still out of action. We apologise and are working on it!

Met Office Five Day Forecast

OZEE AND BLUE SKY BLUE FLYING SUITS

We are offering a 5% discount on the price of Ozee and Blue Sky Blue flying suits - please send an email to jill@eosm.co.uk giving your choice of suit, size and colour preference.

Pooleys advert

Pooleys are supporting East of Scotland Microlights members and guests by offering 5% discount to anyone making a purchase on their website www.pooleys.com. Simply enter the promotional code "EOSM" when you checkout and you will get a 5% discount on whatever you buy.